createdAt,value
2018-08-20T00:02:22.340Z,92.30
2018-08-20T00:04:50.658Z,92.20
2018-08-20T00:07:18.315Z,91.80
2018-08-20T00:09:46.437Z,91.00
2018-08-20T00:12:15.280Z,90.80
2018-08-20T00:14:42.914Z,92.00
2018-08-20T00:17:10.521Z,91.40
2018-08-20T00:19:40.253Z,90.60
2018-08-20T00:22:08.143Z,90.60
2018-08-20T00:24:35.783Z,90.60
2018-08-20T00:27:03.468Z,89.50
2018-08-20T00:29:34.706Z,89.30
2018-08-20T00:32:02.330Z,88.90
2018-08-20T00:34:30.009Z,86.70
2018-08-20T00:36:57.630Z,86.50
2018-08-20T00:39:25.255Z,85.80
2018-08-20T00:41:52.866Z,86.10
2018-08-20T00:44:20.477Z,85.50
2018-08-20T00:46:48.110Z,85.00
2018-08-20T00:49:16.394Z,84.40
2018-08-20T00:51:44.210Z,85.50
2018-08-20T00:54:11.842Z,85.60
2018-08-20T00:56:39.463Z,84.70
2018-08-20T00:59:07.066Z,85.30
2018-08-20T01:01:34.735Z,86.20
2018-08-20T01:04:02.862Z,85.80
2018-08-20T01:06:30.690Z,86.30
2018-08-20T01:08:58.423Z,86.10
2018-08-20T01:11:26.123Z,86.70
2018-08-20T01:13:53.776Z,86.80
2018-08-20T01:16:21.455Z,87.40
2018-08-20T01:18:49.091Z,87.70
2018-08-20T01:21:16.697Z,87.90
2018-08-20T01:23:44.371Z,89.20
2018-08-20T01:26:12.152Z,89.50
2018-08-20T01:28:39.833Z,89.20
2018-08-20T01:31:07.487Z,89.20
2018-08-20T01:33:35.106Z,88.20
2018-08-20T01:36:02.739Z,87.80
2018-08-20T01:38:30.372Z,88.40
2018-08-20T01:40:58.030Z,87.70
2018-08-20T01:43:25.642Z,87.30
2018-08-20T01:45:53.318Z,87.20
2018-08-20T01:48:20.929Z,86.70
2018-08-20T01:50:48.591Z,86.80
2018-08-20T01:53:16.276Z,86.80
2018-08-20T01:55:43.898Z,86.80
2018-08-20T01:58:11.492Z,86.40
2018-08-20T02:00:39.143Z,86.70
2018-08-20T02:03:06.866Z,86.70
2018-08-20T02:05:34.562Z,87.00
2018-08-20T02:08:02.278Z,86.90
2018-08-20T02:10:30.430Z,86.50
2018-08-20T02:12:58.087Z,86.30
2018-08-20T02:15:25.844Z,87.00
2018-08-20T02:17:53.861Z,86.50
2018-08-20T02:20:21.546Z,86.30
2018-08-20T02:22:49.210Z,86.00
2018-08-20T02:25:16.873Z,85.70
2018-08-20T02:27:44.557Z,85.80
2018-08-20T02:30:12.163Z,86.00
2018-08-20T02:32:39.814Z,85.80
2018-08-20T02:35:08.026Z,85.50
2018-08-20T02:37:41.169Z,85.70
2018-08-20T02:40:09.521Z,85.90
2018-08-20T02:42:37.334Z,86.00
2018-08-20T02:45:06.936Z,86.10
2018-08-20T02:47:34.637Z,86.40
2018-08-20T02:50:02.271Z,86.00
2018-08-20T02:52:29.964Z,86.10
2018-08-20T02:54:57.604Z,86.50
2018-08-20T02:57:25.255Z,86.90
2018-08-20T02:59:52.851Z,87.00
2018-08-20T03:02:20.487Z,88.10
2018-08-20T03:04:48.094Z,87.20
2018-08-20T03:07:15.728Z,87.80
2018-08-20T03:09:43.393Z,87.90
2018-08-20T03:12:11.066Z,87.60
2018-08-20T03:14:38.691Z,87.60
2018-08-20T03:17:06.380Z,87.90
2018-08-20T03:19:34.014Z,88.50
2018-08-20T03:22:01.717Z,88.50
2018-08-20T03:24:29.331Z,88.10
2018-08-20T03:26:57.018Z,88.10
2018-08-20T03:29:24.717Z,88.20
2018-08-20T03:31:52.412Z,88.60
2018-08-20T03:34:20.102Z,88.40
2018-08-20T03:36:47.782Z,88.80
2018-08-20T03:39:15.406Z,88.90
2018-08-20T03:41:43.111Z,89.00
2018-08-20T03:44:10.751Z,89.50
2018-08-20T03:46:38.358Z,89.30
2018-08-20T03:49:06.230Z,89.80
2018-08-20T03:51:33.935Z,89.20
2018-08-20T03:54:01.650Z,89.60
2018-08-20T03:56:29.286Z,90.00
2018-08-20T03:58:56.903Z,90.20
2018-08-20T04:01:25.175Z,90.00
2018-08-20T04:03:53.074Z,90.30
2018-08-20T04:06:20.696Z,90.50
2018-08-20T04:08:48.334Z,90.50
2018-08-20T04:11:15.958Z,90.40
2018-08-20T04:13:43.575Z,90.80
2018-08-20T04:16:11.208Z,90.60
2018-08-20T04:18:38.917Z,90.80
2018-08-20T04:21:06.737Z,90.40
2018-08-20T04:23:34.393Z,90.40
2018-08-20T04:26:02.175Z,90.50
2018-08-20T04:28:29.819Z,90.70
2018-08-20T04:30:57.504Z,90.80
2018-08-20T04:33:25.120Z,90.80
2018-08-20T04:35:52.853Z,90.80
2018-08-20T04:38:20.594Z,90.90
2018-08-20T04:40:48.282Z,90.50
2018-08-20T04:43:15.911Z,89.20
2018-08-20T04:45:43.534Z,88.00
2018-08-20T04:48:11.382Z,88.10
2018-08-20T04:50:39.119Z,83.10
2018-08-20T04:53:06.763Z,80.30
2018-08-20T04:55:34.365Z,77.80
2018-08-20T04:58:02.083Z,78.70
2018-08-20T05:00:29.699Z,77.50
2018-08-20T05:02:57.339Z,72.20
2018-08-20T05:05:25.050Z,67.50
2018-08-20T05:07:52.682Z,64.40
2018-08-20T05:10:20.291Z,61.50
2018-08-20T05:12:47.915Z,58.60
2018-08-20T05:15:15.547Z,57.50
2018-08-20T05:17:43.157Z,57.30
2018-08-20T05:20:10.858Z,54.10
2018-08-20T05:22:38.612Z,52.90
2018-08-20T05:25:06.382Z,54.40
2018-08-20T05:27:34.015Z,52.40
2018-08-20T05:30:01.641Z,51.70
2018-08-20T05:32:29.389Z,48.20
2018-08-20T05:34:57.010Z,47.50
2018-08-20T05:37:24.940Z,45.70
2018-08-20T05:39:52.571Z,43.50
2018-08-20T05:42:20.254Z,40.70
2018-08-20T05:44:47.980Z,39.10
2018-08-20T05:47:15.587Z,37.90
2018-08-20T05:49:43.250Z,37.10
2018-08-20T05:52:10.872Z,35.30
2018-08-20T05:54:38.534Z,34.50
2018-08-20T05:57:06.181Z,33.00
2018-08-20T05:59:33.856Z,32.20
2018-08-20T06:02:01.544Z,31.30
2018-08-20T06:04:29.259Z,31.30
2018-08-20T06:06:56.894Z,30.50
2018-08-20T06:09:24.527Z,29.70
2018-08-20T06:11:52.307Z,29.00
2018-08-20T06:14:19.958Z,28.30
2018-08-20T06:16:47.591Z,28.20
2018-08-20T06:19:15.239Z,28.10
2018-08-20T06:21:42.871Z,27.30
2018-08-20T06:24:10.552Z,27.30
2018-08-20T06:26:38.225Z,26.90
2018-08-20T06:29:05.868Z,26.80
2018-08-20T06:31:33.487Z,26.80
2018-08-20T06:34:01.145Z,26.40
2018-08-20T06:36:28.879Z,26.20
2018-08-20T06:38:56.491Z,26.30
2018-08-20T06:41:24.151Z,26.50
2018-08-20T06:43:51.772Z,26.10
2018-08-20T06:46:19.390Z,25.90
2018-08-20T06:48:47.018Z,25.50
2018-08-20T06:51:14.675Z,25.50
2018-08-20T06:53:42.309Z,25.00
2018-08-20T06:56:09.942Z,25.10
2018-08-20T06:58:37.562Z,24.80
2018-08-20T07:01:05.194Z,24.80
2018-08-20T07:03:32.875Z,24.70
2018-08-20T07:06:00.651Z,25.50
2018-08-20T07:08:28.294Z,25.10
2018-08-20T07:10:55.911Z,25.20
2018-08-20T07:13:27.462Z,24.40
2018-08-20T07:15:55.102Z,24.20
2018-08-20T07:18:22.737Z,24.50
2018-08-20T07:20:50.558Z,24.50
2018-08-20T07:23:18.341Z,23.80
2018-08-20T07:25:45.990Z,24.00
2018-08-20T07:28:13.638Z,23.80
2018-08-20T07:30:41.312Z,23.20
2018-08-20T07:33:09.014Z,23.10
2018-08-20T07:35:36.680Z,22.80
2018-08-20T07:38:04.371Z,24.70
2018-08-20T07:40:32.163Z,23.10
2018-08-20T07:43:00.045Z,23.30
2018-08-20T07:45:27.935Z,23.80
2018-08-20T07:47:55.638Z,23.80
2018-08-20T07:50:23.449Z,22.80
2018-08-20T07:52:51.191Z,23.20
2018-08-20T07:55:18.943Z,24.30
2018-08-20T07:57:46.746Z,24.30
2018-08-20T08:00:14.558Z,25.90
2018-08-20T08:02:42.314Z,25.10
2018-08-20T08:05:10.619Z,24.40
2018-08-20T08:07:38.852Z,25.70
2018-08-20T08:10:09.560Z,25.40
2018-08-20T08:12:37.922Z,27.20
2018-08-20T08:15:06.588Z,30.20
2018-08-20T08:17:34.218Z,31.50
2018-08-20T08:20:01.913Z,33.90
2018-08-20T08:22:29.615Z,34.70
2018-08-20T08:24:57.302Z,37.10
2018-08-20T08:27:25.015Z,39.90
2018-08-20T08:29:52.638Z,44.70
2018-08-20T08:32:20.315Z,41.30
2018-08-20T08:34:47.974Z,40.80
2018-08-20T08:37:15.614Z,41.90
2018-08-20T08:39:43.260Z,43.90
2018-08-20T08:42:10.875Z,44.00
2018-08-20T08:44:38.540Z,42.10
2018-08-20T08:47:06.815Z,44.20
2018-08-20T08:52:08.882Z,43.50
2018-08-20T08:54:36.496Z,44.40
2018-08-20T08:57:04.189Z,42.70
2018-08-20T08:59:31.923Z,46.50
2018-08-20T09:01:59.695Z,42.90
2018-08-20T09:04:27.443Z,43.00
2018-08-20T09:06:55.067Z,43.80
2018-08-20T09:09:22.726Z,43.90
2018-08-20T09:11:50.396Z,43.70
2018-08-20T09:14:18.059Z,43.00
2018-08-20T09:16:45.677Z,44.60
2018-08-20T09:19:13.340Z,43.40
2018-08-20T09:21:40.987Z,44.50
2018-08-20T09:24:08.674Z,44.30
2018-08-20T09:26:36.289Z,44.00
2018-08-20T09:29:03.933Z,45.80
2018-08-20T09:31:31.591Z,45.70
2018-08-20T09:33:59.303Z,45.50
2018-08-20T09:36:26.975Z,45.10
2018-08-20T09:38:54.594Z,45.40
2018-08-20T09:41:22.237Z,46.30
2018-08-20T09:43:49.851Z,44.90
2018-08-20T09:46:17.455Z,44.80
2018-08-20T09:48:45.091Z,45.30
2018-08-20T09:51:12.691Z,45.50
2018-08-20T09:53:40.351Z,45.60
2018-08-20T09:56:08.013Z,45.60
2018-08-20T09:58:35.693Z,45.20
2018-08-20T10:01:03.370Z,45.60
2018-08-20T10:03:31.020Z,46.40
2018-08-20T10:05:58.614Z,46.30
2018-08-20T10:08:26.374Z,45.90
2018-08-20T10:10:54.002Z,45.30
2018-08-20T10:13:21.627Z,45.50
2018-08-20T10:15:49.283Z,46.10
2018-08-20T10:18:16.900Z,45.30
2018-08-20T10:20:44.528Z,45.70
2018-08-20T10:23:12.187Z,46.20
2018-08-20T10:25:39.856Z,47.30
2018-08-20T10:28:07.600Z,46.20
2018-08-20T10:30:35.375Z,47.00
2018-08-20T10:33:03.052Z,47.30
2018-08-20T10:35:30.711Z,47.50
2018-08-20T10:37:58.510Z,47.30
2018-08-20T10:40:26.176Z,48.20
2018-08-20T10:42:53.880Z,47.90
2018-08-20T10:45:27.264Z,46.90
2018-08-20T10:47:54.928Z,46.30
2018-08-20T10:50:23.193Z,45.70
2018-08-20T10:52:51.395Z,44.90
2018-08-20T10:55:19.215Z,46.30
2018-08-20T10:57:47.005Z,45.80
2018-08-20T11:00:15.598Z,46.30
2018-08-20T11:02:43.374Z,45.60
2018-08-20T11:05:15.358Z,45.90
2018-08-20T11:07:43.238Z,45.30
2018-08-20T11:10:11.215Z,46.40
2018-08-20T11:12:39.013Z,46.20
2018-08-20T11:15:08.201Z,45.60
2018-08-20T11:17:36.308Z,45.80
2018-08-20T11:20:05.817Z,44.90
2018-08-20T11:22:33.610Z,45.40
2018-08-20T11:25:01.409Z,46.20
2018-08-20T11:27:29.224Z,45.70
2018-08-20T11:29:56.992Z,46.30
2018-08-20T11:32:24.933Z,46.50
2018-08-20T11:34:52.640Z,46.10
2018-08-20T11:37:20.274Z,45.50
2018-08-20T11:39:47.900Z,46.30
2018-08-20T11:42:15.573Z,46.40
2018-08-20T11:44:43.171Z,46.80
2018-08-20T11:47:10.803Z,46.70
2018-08-20T11:49:38.445Z,46.60
2018-08-20T11:52:06.143Z,46.70
2018-08-20T11:54:33.814Z,46.60
2018-08-20T11:57:01.467Z,46.70
2018-08-20T11:59:29.138Z,46.50
2018-08-20T12:01:56.781Z,46.30
2018-08-20T12:04:24.463Z,47.50
2018-08-20T12:06:52.138Z,46.10
2018-08-20T12:09:19.766Z,47.20
2018-08-20T12:11:47.413Z,47.10
2018-08-20T12:14:15.058Z,47.20
2018-08-20T12:16:42.670Z,47.20
2018-08-20T12:19:10.343Z,47.30
2018-08-20T12:21:37.995Z,46.90
2018-08-20T12:24:05.621Z,48.10
2018-08-20T12:26:33.277Z,47.70
2018-08-20T12:29:00.907Z,47.50
2018-08-20T12:31:28.615Z,47.60
2018-08-20T12:33:56.290Z,47.20
2018-08-20T12:36:23.951Z,47.00
2018-08-20T12:38:51.635Z,46.90
2018-08-20T12:41:19.283Z,47.80
2018-08-20T12:43:46.926Z,46.90
2018-08-20T12:46:17.835Z,47.60
2018-08-20T12:48:46.037Z,47.10
2018-08-20T12:51:13.670Z,47.60
2018-08-20T12:53:41.318Z,47.50
2018-08-20T12:56:09.226Z,47.00
2018-08-20T12:58:36.858Z,47.00
2018-08-20T13:01:04.487Z,46.50
2018-08-20T13:03:32.129Z,46.90
2018-08-20T13:05:59.783Z,47.80
2018-08-20T13:08:27.444Z,47.30
2018-08-20T13:10:55.108Z,46.70
2018-08-20T13:13:22.819Z,46.50
2018-08-20T13:15:50.487Z,46.10
2018-08-20T13:18:18.433Z,46.10
2018-08-20T13:20:46.077Z,45.20
2018-08-20T13:23:13.992Z,45.20
2018-08-20T13:25:41.666Z,45.30
2018-08-20T13:28:09.611Z,44.80
2018-08-20T13:30:37.405Z,46.10
2018-08-20T13:33:05.263Z,45.60
2018-08-20T13:35:32.965Z,45.70
2018-08-20T13:38:00.634Z,44.80
2018-08-20T13:40:28.595Z,45.70
2018-08-20T13:42:56.236Z,45.80
2018-08-20T13:45:23.871Z,45.50
2018-08-20T13:47:51.573Z,45.90
2018-08-20T13:50:19.293Z,45.30
2018-08-20T13:52:47.203Z,45.30
2018-08-20T13:55:14.874Z,45.70
2018-08-20T13:57:46.588Z,45.50
2018-08-20T14:00:16.027Z,45.00
2018-08-20T14:02:43.772Z,45.00
2018-08-20T14:05:11.526Z,45.30
2018-08-20T14:07:39.165Z,45.90
2018-08-20T14:10:07.966Z,45.60
2018-08-20T14:12:36.428Z,45.50
2018-08-20T14:15:04.345Z,45.70
2018-08-20T14:17:31.986Z,45.30
2018-08-20T14:19:59.756Z,45.40
2018-08-20T14:22:27.412Z,45.40
2018-08-20T14:24:55.025Z,45.20
2018-08-20T14:27:22.662Z,44.90
2018-08-20T14:29:50.286Z,44.80
2018-08-20T14:32:17.914Z,44.90
2018-08-20T14:34:45.539Z,45.60
2018-08-20T14:37:13.186Z,46.10
2018-08-20T14:39:40.792Z,46.30
2018-08-20T14:42:08.406Z,46.70
2018-08-20T14:44:36.035Z,47.20
2018-08-20T14:47:03.695Z,47.40
2018-08-20T14:49:31.343Z,47.70
2018-08-20T14:51:58.987Z,47.80
2018-08-20T14:54:26.651Z,48.20
2018-08-20T14:56:54.267Z,48.40
2018-08-20T14:59:21.887Z,48.70
2018-08-20T15:01:49.545Z,49.00
2018-08-20T15:04:17.243Z,48.60
2018-08-20T15:06:56.700Z,48.40
2018-08-20T15:09:25.400Z,48.30
2018-08-20T15:11:53.464Z,48.60
2018-08-20T15:14:21.290Z,49.00
2018-08-20T15:16:48.923Z,48.90
2018-08-20T15:19:16.855Z,48.60
2018-08-20T15:21:44.801Z,48.70
2018-08-20T15:24:12.541Z,48.60
2018-08-20T15:26:40.222Z,49.10
2018-08-20T15:29:08.048Z,48.50
2018-08-20T15:31:35.713Z,48.90
2018-08-20T15:34:03.347Z,48.80
2018-08-20T15:36:30.998Z,48.80
2018-08-20T15:38:58.746Z,49.00
2018-08-20T15:41:26.372Z,49.00
2018-08-20T15:43:53.982Z,49.10
2018-08-20T15:46:21.703Z,49.70
2018-08-20T15:48:49.347Z,49.20
2018-08-20T15:51:17.019Z,49.40
2018-08-20T15:53:44.838Z,49.40
2018-08-20T15:56:12.471Z,49.70
2018-08-20T15:58:40.103Z,49.90
2018-08-20T16:01:07.774Z,49.50
2018-08-20T16:03:35.398Z,49.80
2018-08-20T16:06:03.147Z,50.30
2018-08-20T16:08:31.377Z,50.60
2018-08-20T16:10:59.027Z,50.50
2018-08-20T16:13:26.642Z,51.00
2018-08-20T16:15:54.287Z,50.50
2018-08-20T16:18:21.963Z,51.00
2018-08-20T16:20:49.577Z,51.60
2018-08-20T16:23:17.207Z,51.80
2018-08-20T16:25:44.838Z,52.00
2018-08-20T16:28:12.477Z,52.20
2018-08-20T16:30:40.130Z,52.30
2018-08-20T16:33:07.871Z,52.80
2018-08-20T16:35:35.559Z,52.90
2018-08-20T16:38:03.368Z,53.00
2018-08-20T16:40:31.184Z,53.30
2018-08-20T16:42:58.854Z,53.40
2018-08-20T16:45:26.533Z,53.60
2018-08-20T16:47:54.134Z,54.40
2018-08-20T16:50:21.842Z,54.30
2018-08-20T16:52:49.575Z,54.50
2018-08-20T16:55:17.231Z,54.50
2018-08-20T16:57:44.858Z,54.40
2018-08-20T17:00:12.891Z,54.40
2018-08-20T17:02:41.349Z,54.40
2018-08-20T17:05:10.267Z,55.00
2018-08-20T17:07:38.034Z,55.10
2018-08-20T17:10:06.995Z,55.20
2018-08-20T17:12:34.678Z,55.40
2018-08-20T17:15:02.960Z,55.50
2018-08-20T17:17:30.547Z,55.70
2018-08-20T17:19:58.155Z,56.20
2018-08-20T17:22:25.806Z,56.30
2018-08-20T17:24:54.115Z,56.50
2018-08-20T17:27:21.794Z,56.70
2018-08-20T17:29:52.182Z,57.00
2018-08-20T17:32:19.886Z,57.90
2018-08-20T17:34:47.511Z,57.50
2018-08-20T17:37:15.211Z,57.80
2018-08-20T17:39:57.461Z,59.60
2018-08-20T17:42:26.708Z,59.00
2018-08-20T17:44:54.437Z,59.10
2018-08-20T17:47:22.832Z,60.20
2018-08-20T17:49:51.103Z,60.90
2018-08-20T17:52:19.015Z,64.70
2018-08-20T17:54:46.717Z,63.10
2018-08-20T17:57:14.627Z,66.50
2018-08-20T17:59:43.108Z,68.00
2018-08-20T18:02:19.230Z,70.00
2018-08-20T18:04:48.308Z,69.40
2018-08-20T18:07:15.950Z,74.30
2018-08-20T18:09:43.617Z,75.10
2018-08-20T18:12:11.248Z,79.50
2018-08-20T18:14:38.865Z,72.60
2018-08-20T18:17:06.783Z,70.90
2018-08-20T18:19:34.419Z,73.30
2018-08-20T18:22:02.274Z,77.40
2018-08-20T18:24:29.944Z,71.70
2018-08-20T18:26:57.584Z,74.30
2018-08-20T18:29:25.296Z,74.30
2018-08-20T18:31:54.318Z,71.60
2018-08-20T18:34:22.086Z,72.00
2018-08-20T18:36:49.710Z,75.10
2018-08-20T18:39:17.443Z,71.80
2018-08-20T18:42:01.834Z,72.30
2018-08-20T18:44:29.520Z,75.00
2018-08-20T18:46:57.261Z,73.40
2018-08-20T18:49:24.953Z,75.50
2018-08-20T18:52:00.333Z,75.20
2018-08-20T18:54:28.142Z,75.50
2018-08-20T18:57:02.930Z,75.50
2018-08-20T18:59:30.819Z,75.80
2018-08-20T19:01:58.514Z,75.90
2018-08-20T19:04:30.112Z,76.30
2018-08-20T19:07:02.696Z,75.20
2018-08-20T19:09:30.315Z,74.90
2018-08-20T19:11:57.964Z,74.60
2018-08-20T19:14:26.477Z,74.70
2018-08-20T19:16:54.259Z,74.80
2018-08-20T19:19:21.927Z,74.80
2018-08-20T19:21:49.631Z,74.90
2018-08-20T19:24:17.368Z,76.80
2018-08-20T19:26:45.233Z,75.50
2018-08-20T19:29:22.500Z,77.50
2018-08-20T19:31:50.164Z,78.40
2018-08-20T19:34:17.826Z,78.90
2018-08-20T19:36:45.446Z,78.70
2018-08-20T19:39:13.098Z,79.40
2018-08-20T19:41:40.747Z,79.40
2018-08-20T19:44:08.384Z,79.70
2018-08-20T19:46:36.804Z,79.80
2018-08-20T19:49:08.775Z,80.20
2018-08-20T19:51:38.075Z,80.60
2018-08-20T19:54:06.662Z,80.70
2018-08-20T19:56:34.297Z,80.90
2018-08-20T19:59:01.990Z,81.40
2018-08-20T20:01:29.709Z,81.80
2018-08-20T20:03:57.426Z,82.50
2018-08-20T20:06:25.147Z,83.10
2018-08-20T20:08:52.838Z,83.50
2018-08-20T20:11:26.064Z,83.50
2018-08-20T20:13:56.879Z,84.30
2018-08-20T20:16:24.922Z,84.60
2018-08-20T20:18:52.956Z,85.70
2018-08-20T20:21:21.286Z,85.90
2018-08-20T20:23:48.944Z,86.30
2018-08-20T20:26:16.748Z,86.70
2018-08-20T20:28:44.427Z,86.70
2018-08-20T20:31:12.183Z,87.10
2018-08-20T20:33:39.795Z,87.50
2018-08-20T20:36:10.300Z,87.00
2018-08-20T20:38:38.155Z,87.50
2018-08-20T20:41:06.350Z,87.50
2018-08-20T20:43:36.588Z,87.70
2018-08-20T20:46:06.145Z,88.50
2018-08-20T20:48:34.430Z,87.80
2018-08-20T20:51:02.222Z,88.20
2018-08-20T20:53:29.887Z,88.00
2018-08-20T20:55:57.588Z,88.10
2018-08-20T20:58:32.909Z,87.80
2018-08-20T21:01:01.714Z,88.20
2018-08-20T21:03:29.466Z,88.50
2018-08-20T21:05:57.351Z,88.00
2018-08-20T21:08:31.194Z,88.00
2018-08-20T21:10:58.890Z,88.20
2018-08-20T21:13:26.672Z,89.10
2018-08-20T21:16:02.926Z,88.70
2018-08-20T21:18:32.794Z,88.80
2018-08-20T21:21:00.514Z,89.30
2018-08-20T21:23:28.327Z,89.30
2018-08-20T21:25:56.035Z,90.00
2018-08-20T21:28:27.850Z,90.20
2018-08-20T21:30:55.549Z,90.40
2018-08-20T21:33:23.323Z,90.50
2018-08-20T21:35:50.991Z,90.70
2018-08-20T21:38:18.651Z,90.90
2018-08-20T21:40:46.395Z,90.70
2018-08-20T21:43:14.075Z,90.60
2018-08-20T21:45:41.758Z,90.30
2018-08-20T21:48:09.753Z,94.90
2018-08-20T21:50:37.418Z,91.00
2018-08-20T21:53:05.091Z,90.90
2018-08-20T21:55:32.746Z,91.00
2018-08-20T21:58:00.447Z,90.90
2018-08-20T22:00:29.430Z,91.10
2018-08-20T22:02:58.986Z,91.30
2018-08-20T22:05:26.918Z,91.40
2018-08-20T22:07:56.521Z,91.60
2018-08-20T22:10:25.115Z,91.60
2018-08-20T22:12:52.803Z,92.00
2018-08-20T22:15:20.462Z,92.20
2018-08-20T22:17:48.114Z,92.30
2018-08-20T22:20:15.821Z,92.50
2018-08-20T22:22:43.557Z,92.60
2018-08-20T22:25:14.563Z,92.60
2018-08-20T22:27:47.951Z,92.70
2018-08-20T22:30:15.839Z,92.80
2018-08-20T22:32:43.963Z,92.90
2018-08-20T22:35:17.093Z,93.00
2018-08-20T22:37:45.979Z,93.10
2018-08-20T22:40:14.471Z,93.30
2018-08-20T22:42:49.343Z,93.70
2018-08-20T22:45:18.225Z,93.50
2018-08-20T22:47:46.878Z,93.60
2018-08-20T22:50:14.707Z,93.60
2018-08-20T22:52:45.574Z,93.80
2018-08-20T22:55:15.419Z,93.70
2018-08-20T22:57:54.234Z,93.90
2018-08-20T23:00:22.775Z,94.10
2018-08-20T23:02:51.547Z,94.20
2018-08-20T23:05:19.185Z,94.40
2018-08-20T23:07:46.878Z,94.60
2018-08-20T23:10:14.558Z,95.00
2018-08-20T23:12:42.643Z,94.80
2018-08-20T23:15:13.193Z,94.90
2018-08-20T23:17:41.175Z,95.00
2018-08-20T23:20:17.544Z,95.00
2018-08-20T23:22:45.330Z,95.00
2018-08-20T23:25:13.058Z,95.10
2018-08-20T23:27:41.144Z,95.20
2018-08-20T23:30:09.719Z,95.20
2018-08-20T23:32:37.415Z,95.20
2018-08-20T23:35:05.075Z,95.30
2018-08-20T23:37:32.810Z,95.40
2018-08-20T23:40:00.542Z,95.60
2018-08-20T23:42:28.250Z,95.50
2018-08-20T23:44:56.550Z,95.70
2018-08-20T23:47:24.266Z,95.80
2018-08-20T23:49:51.866Z,95.90
2018-08-20T23:52:19.571Z,95.90
2018-08-20T23:54:47.239Z,96.10
2018-08-20T23:57:14.883Z,96.10
2018-08-20T23:59:42.511Z,96.20
